createdAt,value
2023-03-26T00:00:15.666Z,99390.53
2023-03-26T00:01:05.891Z,99391.91
2023-03-26T00:01:52.952Z,99389.09
2023-03-26T00:02:40.087Z,99393.91
2023-03-26T00:03:28.016Z,99391.72
2023-03-26T00:04:14.930Z,99381.63
2023-03-26T00:05:01.928Z,99382.97
2023-03-26T00:05:49.076Z,99387.97
2023-03-26T00:06:39.848Z,99387.50
2023-03-26T00:07:28.157Z,99386.34
2023-03-26T00:08:17.208Z,99387.34
2023-03-26T00:09:05.324Z,99381.50
2023-03-26T00:09:53.248Z,99375.44
2023-03-26T00:10:41.043Z,99383.31
2023-03-26T00:11:29.428Z,99388.59
2023-03-26T00:12:16.367Z,99382.06
2023-03-26T00:13:04.127Z,99378.22
2023-03-26T00:13:53.770Z,99386.63
2023-03-26T00:14:41.142Z,99383.34
2023-03-26T00:15:28.046Z,99378.94
2023-03-26T00:16:18.470Z,99379.31
2023-03-26T00:17:05.623Z,99385.50
2023-03-26T00:17:54.435Z,99381.34
2023-03-26T00:18:42.781Z,99375.34
2023-03-26T00:19:30.374Z,99378.72
2023-03-26T00:20:17.378Z,99384.06
2023-03-26T00:21:06.045Z,99377.22
2023-03-26T00:21:53.451Z,99381.25
2023-03-26T00:22:41.789Z,99375.09
2023-03-26T00:23:29.819Z,99373.56
2023-03-26T00:24:17.635Z,99378.09
2023-03-26T00:25:05.854Z,99368.19
2023-03-26T00:25:54.732Z,99368.00
2023-03-26T00:26:42.342Z,99375.53
2023-03-26T00:27:29.435Z,99371.53
2023-03-26T00:28:17.417Z,99365.31
2023-03-26T00:29:04.607Z,99369.69
2023-03-26T00:29:52.097Z,99363.97
2023-03-26T00:30:41.984Z,99370.00
2023-03-26T00:31:28.985Z,99361.78
2023-03-26T00:32:17.035Z,99363.09
2023-03-26T00:33:04.227Z,99368.47
2023-03-26T00:33:54.529Z,99366.41
2023-03-26T00:34:41.678Z,99372.12
2023-03-26T00:35:30.122Z,99365.75
2023-03-26T00:36:17.885Z,99356.53
2023-03-26T00:37:05.281Z,99370.81
2023-03-26T00:37:53.617Z,99364.78
2023-03-26T00:38:41.659Z,99362.31
2023-03-26T00:39:29.670Z,99362.31
2023-03-26T00:40:16.630Z,99365.28
2023-03-26T00:41:06.296Z,99363.44
2023-03-26T00:41:54.790Z,99361.81
2023-03-26T00:42:42.716Z,99364.97
2023-03-26T00:43:33.027Z,99368.84
2023-03-26T00:44:21.072Z,99370.00
2023-03-26T00:45:08.429Z,99365.12
2023-03-26T00:45:56.087Z,99360.59
2023-03-26T00:46:43.131Z,99356.94
2023-03-26T00:47:31.122Z,99367.66
2023-03-26T00:48:18.836Z,99365.12
2023-03-26T00:49:05.805Z,99359.78
2023-03-26T00:49:52.710Z,99362.63
2023-03-26T00:50:40.043Z,99357.47
2023-03-26T00:51:28.393Z,99354.63
2023-03-26T00:52:19.180Z,99358.97
2023-03-26T00:53:06.065Z,99356.28
2023-03-26T00:53:53.056Z,99353.94
2023-03-26T00:54:40.430Z,99356.25
2023-03-26T00:55:27.343Z,99357.25
2023-03-26T00:56:14.553Z,99359.47
2023-03-26T00:57:01.521Z,99361.78
2023-03-26T00:57:48.501Z,99358.63
2023-03-26T00:58:35.714Z,99364.97
2023-03-26T00:59:23.443Z,99364.66
2023-03-26T01:00:15.379Z,99356.44
2023-03-26T01:01:08.270Z,99363.34
2023-03-26T01:01:55.240Z,99371.41
2023-03-26T01:02:45.351Z,99370.75
2023-03-26T01:03:35.187Z,99366.38
2023-03-26T01:04:31.070Z,99369.25
2023-03-26T01:05:48.953Z,99372.12
2023-03-26T01:06:38.134Z,99368.25
2023-03-26T01:07:29.215Z,99361.88
2023-03-26T01:08:18.933Z,99370.94
2023-03-26T01:09:14.695Z,99365.25
2023-03-26T01:10:02.070Z,99364.91
2023-03-26T01:10:54.291Z,99364.41
2023-03-26T01:11:41.370Z,99367.13
2023-03-26T01:12:32.210Z,99363.09
2023-03-26T01:13:24.030Z,99364.25
2023-03-26T01:14:18.133Z,99353.72
2023-03-26T01:15:05.688Z,99361.59
2023-03-26T01:15:53.202Z,99363.78
2023-03-26T01:16:45.288Z,99368.31
2023-03-26T01:17:34.511Z,99357.38
2023-03-26T01:18:26.526Z,99364.62
2023-03-26T01:19:42.454Z,99353.41
2023-03-26T01:20:30.645Z,99360.78
2023-03-26T01:21:23.337Z,99360.78
2023-03-26T01:22:14.940Z,99349.22
2023-03-26T01:23:08.017Z,99358.09
2023-03-26T01:24:02.781Z,99357.44
2023-03-26T01:24:54.109Z,99350.56
2023-03-26T01:25:45.588Z,99356.59
2023-03-26T01:27:10.059Z,99351.25
2023-03-26T01:27:57.273Z,99356.59
2023-03-26T01:28:44.200Z,99359.94
2023-03-26T01:29:44.389Z,99349.56
2023-03-26T01:30:42.510Z,99353.41
2023-03-26T01:31:37.223Z,99352.91
2023-03-26T01:32:47.802Z,99354.41
2023-03-26T01:33:46.165Z,99353.94
2023-03-26T01:35:00.812Z,99353.75
2023-03-26T01:35:54.384Z,99348.22
2023-03-26T01:36:56.700Z,99346.41
2023-03-26T01:37:58.887Z,99343.19
2023-03-26T01:39:06.141Z,99354.59
2023-03-26T01:39:58.501Z,99359.44
2023-03-26T01:40:58.941Z,99358.59
2023-03-26T01:41:49.410Z,99356.41
2023-03-26T01:43:07.048Z,99351.06
2023-03-26T01:44:19.560Z,99356.75
2023-03-26T01:45:17.589Z,99354.91
2023-03-26T01:46:07.547Z,99348.88
2023-03-26T01:46:54.863Z,99340.84
2023-03-26T01:47:42.608Z,99346.69
2023-03-26T01:48:40.739Z,99344.69
2023-03-26T01:49:31.659Z,99347.72
2023-03-26T01:50:18.618Z,99335.31
2023-03-26T01:51:07.295Z,99339.50
2023-03-26T01:51:56.794Z,99340.31
2023-03-26T01:52:43.741Z,99330.63
2023-03-26T01:53:32.023Z,99333.66
2023-03-26T01:54:21.382Z,99334.62
2023-03-26T01:55:12.941Z,99343.00
2023-03-26T01:56:11.077Z,99336.13
2023-03-26T01:57:14.961Z,99336.63
2023-03-26T01:58:17.400Z,99334.12
2023-03-26T01:59:29.188Z,99330.75
2023-03-26T02:00:16.563Z,99335.94
2023-03-26T02:01:18.214Z,99332.97
2023-03-26T02:02:12.071Z,99331.44
2023-03-26T02:03:02.152Z,99326.06
2023-03-26T02:03:59.802Z,99331.59
2023-03-26T02:04:57.989Z,99329.22
2023-03-26T02:05:55.088Z,99328.56
2023-03-26T02:06:47.078Z,99331.84
2023-03-26T02:07:44.868Z,99331.13
2023-03-26T02:08:41.487Z,99330.13
2023-03-26T02:09:32.341Z,99325.28
2023-03-26T02:10:34.445Z,99320.00
2023-03-26T02:11:23.228Z,99325.44
2023-03-26T02:12:10.446Z,99325.41
2023-03-26T02:12:58.318Z,99323.41
2023-03-26T02:13:46.424Z,99324.75
2023-03-26T02:14:33.438Z,99322.81
2023-03-26T02:15:20.933Z,99323.75
2023-03-26T02:16:10.113Z,99323.25
2023-03-26T02:16:59.128Z,99311.38
2023-03-26T02:17:47.186Z,99316.59
2023-03-26T02:18:36.993Z,99316.91
2023-03-26T02:19:24.833Z,99321.56
2023-03-26T02:20:14.528Z,99318.94
2023-03-26T02:21:02.091Z,99307.41
2023-03-26T02:21:52.338Z,99304.12
2023-03-26T02:22:41.194Z,99306.94
2023-03-26T02:23:29.871Z,99317.72
2023-03-26T02:24:17.266Z,99303.31
2023-03-26T02:25:04.315Z,99317.22
2023-03-26T02:25:51.280Z,99307.03
2023-03-26T02:26:38.470Z,99303.88
2023-03-26T02:27:25.408Z,99303.31
2023-03-26T02:28:12.323Z,99308.53
2023-03-26T02:28:59.853Z,99310.72
2023-03-26T02:29:47.934Z,99310.38
2023-03-26T02:30:34.980Z,99308.72
2023-03-26T02:31:22.105Z,99311.38
2023-03-26T02:32:13.463Z,99309.19
2023-03-26T02:33:00.497Z,99304.91
2023-03-26T02:33:47.858Z,99304.38
2023-03-26T02:34:34.762Z,99302.53
2023-03-26T02:35:22.266Z,99299.50
2023-03-26T02:36:10.995Z,99304.03
2023-03-26T02:36:58.364Z,99301.03
2023-03-26T02:37:47.159Z,99303.66
2023-03-26T02:38:35.429Z,99304.69
2023-03-26T02:39:22.379Z,99304.34
2023-03-26T02:40:11.956Z,99302.66
2023-03-26T02:40:58.864Z,99302.66
2023-03-26T02:41:45.769Z,99304.50
2023-03-26T02:42:33.520Z,99308.19
2023-03-26T02:43:20.836Z,99300.69
2023-03-26T02:44:07.744Z,99297.34
2023-03-26T02:44:54.655Z,99295.03
2023-03-26T02:45:41.576Z,99298.41
2023-03-26T02:46:28.603Z,99300.91
2023-03-26T02:47:15.556Z,99301.03
2023-03-26T02:48:02.703Z,99306.72
2023-03-26T02:48:50.144Z,99302.88
2023-03-26T02:49:37.054Z,99308.56
2023-03-26T02:50:24.307Z,99309.72
2023-03-26T02:51:11.213Z,99312.56
2023-03-26T02:51:58.376Z,99309.72
2023-03-26T02:52:45.621Z,99313.72
2023-03-26T02:53:33.349Z,99315.16
2023-03-26T02:54:20.713Z,99317.88
2023-03-26T02:55:07.936Z,99316.09
2023-03-26T02:55:55.012Z,99309.53
2023-03-26T02:56:42.072Z,99306.03
2023-03-26T02:57:29.273Z,99305.22
2023-03-26T02:58:17.665Z,99309.66
2023-03-26T02:59:04.658Z,99314.19
2023-03-26T02:59:53.050Z,99311.53
2023-03-26T03:00:40.352Z,99304.88
2023-03-26T03:01:31.117Z,99300.37
2023-03-26T03:02:18.538Z,99304.91
2023-03-26T03:03:07.038Z,99299.22
2023-03-26T03:03:54.454Z,99303.91
2023-03-26T03:04:41.382Z,99303.94
2023-03-26T03:05:29.073Z,99303.94
2023-03-26T03:06:20.236Z,99304.62
2023-03-26T03:07:07.954Z,99302.63
2023-03-26T03:07:58.481Z,99300.28
2023-03-26T03:08:49.092Z,99300.25
2023-03-26T03:09:35.845Z,99299.06
2023-03-26T03:10:23.351Z,99296.88
2023-03-26T03:11:12.622Z,99306.44
2023-03-26T03:12:07.657Z,99301.25
2023-03-26T03:12:55.143Z,99301.72
2023-03-26T03:13:42.843Z,99294.19
2023-03-26T03:14:29.724Z,99297.69
2023-03-26T03:15:16.645Z,99294.59
2023-03-26T03:16:03.964Z,99297.13
2023-03-26T03:16:50.971Z,99298.78
2023-03-26T03:17:38.019Z,99300.13
2023-03-26T03:18:43.449Z,99304.00
2023-03-26T03:19:30.366Z,99302.81
2023-03-26T03:20:17.990Z,99298.66
2023-03-26T03:21:06.445Z,99296.66
2023-03-26T03:21:53.406Z,99298.94
2023-03-26T03:22:41.034Z,99304.81
2023-03-26T03:23:27.975Z,99309.00
2023-03-26T03:24:18.691Z,99309.34
2023-03-26T03:25:09.225Z,99315.87
2023-03-26T03:25:57.848Z,99314.06
2023-03-26T03:26:46.048Z,99313.72
2023-03-26T03:27:32.921Z,99303.84
2023-03-26T03:28:20.321Z,99307.19
2023-03-26T03:29:07.307Z,99308.19
2023-03-26T03:29:56.017Z,99311.38
2023-03-26T03:30:43.094Z,99314.56
2023-03-26T03:31:30.076Z,99312.88
2023-03-26T03:32:17.029Z,99306.19
2023-03-26T03:33:04.254Z,99309.34
2023-03-26T03:33:51.910Z,99309.84
2023-03-26T03:34:39.105Z,99307.69
2023-03-26T03:35:27.890Z,99311.88
2023-03-26T03:36:20.095Z,99309.19
2023-03-26T03:37:08.768Z,99305.00
2023-03-26T03:37:57.058Z,99303.97
2023-03-26T03:38:44.398Z,99305.69
2023-03-26T03:39:31.419Z,99304.84
2023-03-26T03:40:18.512Z,99306.50
2023-03-26T03:41:05.959Z,99298.81
2023-03-26T03:41:52.835Z,99296.97
2023-03-26T03:42:39.811Z,99292.13
2023-03-26T03:43:27.729Z,99296.97
2023-03-26T03:44:14.608Z,99292.94
2023-03-26T03:45:02.350Z,99290.78
2023-03-26T03:45:49.277Z,99295.31
2023-03-26T03:46:36.443Z,99287.91
2023-03-26T03:47:23.401Z,99285.94
2023-03-26T03:48:10.654Z,99294.28
2023-03-26T03:48:57.643Z,99296.31
2023-03-26T03:49:44.663Z,99296.12
2023-03-26T03:50:34.294Z,99284.75
2023-03-26T03:51:22.472Z,99287.78
2023-03-26T03:52:09.338Z,99283.41
2023-03-26T03:52:56.409Z,99289.12
2023-03-26T03:53:43.335Z,99299.66
2023-03-26T03:54:30.651Z,99291.44
2023-03-26T03:55:17.558Z,99295.31
2023-03-26T03:56:10.570Z,99293.78
2023-03-26T03:56:57.676Z,99293.63
2023-03-26T03:57:44.785Z,99290.63
2023-03-26T03:58:31.776Z,99296.31
2023-03-26T03:59:18.634Z,99297.16
2023-03-26T04:00:08.320Z,99294.63
2023-03-26T04:01:01.086Z,99300.50
2023-03-26T04:01:48.735Z,99302.16
2023-03-26T04:02:35.931Z,99305.00
2023-03-26T04:03:33.370Z,99303.50
2023-03-26T04:04:22.303Z,99301.66
2023-03-26T04:05:11.791Z,99297.97
2023-03-26T04:05:58.760Z,99298.66
2023-03-26T04:06:45.759Z,99303.19
2023-03-26T04:07:33.277Z,99307.34
2023-03-26T04:08:20.439Z,99305.53
2023-03-26T04:09:07.378Z,99300.31
2023-03-26T04:09:54.553Z,99308.03
2023-03-26T04:10:43.932Z,99315.03
2023-03-26T04:11:31.018Z,99308.03
2023-03-26T04:12:18.159Z,99312.03
2023-03-26T04:13:05.041Z,99319.75
2023-03-26T04:13:51.981Z,99319.41
2023-03-26T04:14:39.018Z,99320.59
2023-03-26T04:15:26.148Z,99318.75
2023-03-26T04:16:13.029Z,99316.88
2023-03-26T04:16:59.975Z,99317.22
2023-03-26T04:17:47.038Z,99321.56
2023-03-26T04:18:34.230Z,99314.91
2023-03-26T04:19:21.582Z,99316.22
2023-03-26T04:20:14.941Z,99317.56
2023-03-26T04:21:02.691Z,99318.41
2023-03-26T04:21:49.800Z,99308.53
2023-03-26T04:22:36.776Z,99306.34
2023-03-26T04:23:23.888Z,99313.56
2023-03-26T04:24:11.255Z,99309.69
2023-03-26T04:24:58.176Z,99314.22
2023-03-26T04:25:48.623Z,99316.25
2023-03-26T04:26:35.859Z,99317.53
2023-03-26T04:27:27.479Z,99317.38
2023-03-26T04:28:28.482Z,99306.66
2023-03-26T04:29:17.362Z,99299.94
2023-03-26T04:30:06.656Z,99303.75
2023-03-26T04:30:54.848Z,99309.97
2023-03-26T04:31:43.428Z,99305.13
2023-03-26T04:32:34.480Z,99305.28
2023-03-26T04:33:21.728Z,99303.56
2023-03-26T04:34:18.901Z,99304.75
2023-03-26T04:35:06.972Z,99297.38
2023-03-26T04:35:54.727Z,99297.56
2023-03-26T04:36:46.539Z,99297.41
2023-03-26T04:37:41.846Z,99296.53
2023-03-26T04:38:33.692Z,99293.53
2023-03-26T04:39:29.468Z,99300.56
2023-03-26T04:40:22.105Z,99301.72
2023-03-26T04:41:13.775Z,99295.72
2023-03-26T04:42:00.997Z,99288.69
2023-03-26T04:42:48.066Z,99290.34
2023-03-26T04:43:47.436Z,99295.16
2023-03-26T04:44:35.137Z,99296.62
2023-03-26T04:45:23.044Z,99290.25
2023-03-26T04:46:10.725Z,99293.75
2023-03-26T04:46:57.640Z,99295.91
2023-03-26T04:47:46.843Z,99291.56
2023-03-26T04:48:33.788Z,99294.06
2023-03-26T04:49:20.881Z,99299.25
2023-03-26T04:50:09.644Z,99304.44
2023-03-26T04:50:56.908Z,99302.56
2023-03-26T04:51:46.408Z,99300.56
2023-03-26T04:52:33.763Z,99299.56
2023-03-26T04:53:24.504Z,99295.88
2023-03-26T04:54:12.938Z,99292.78
2023-03-26T04:55:00.502Z,99295.81
2023-03-26T04:56:08.689Z,99291.13
2023-03-26T04:57:04.175Z,99308.75
2023-03-26T04:57:55.249Z,99301.34
2023-03-26T04:58:42.209Z,99300.97
2023-03-26T04:59:35.201Z,99300.28
2023-03-26T05:00:22.457Z,99303.56
2023-03-26T05:01:11.369Z,99309.06
2023-03-26T05:02:00.278Z,99324.13
2023-03-26T05:02:50.645Z,99320.91
2023-03-26T05:03:41.564Z,99316.22
2023-03-26T05:04:32.256Z,99316.88
2023-03-26T05:05:19.093Z,99310.56
2023-03-26T05:06:06.240Z,99312.97
2023-03-26T05:06:53.926Z,99311.66
2023-03-26T05:07:42.367Z,99307.72
2023-03-26T05:08:29.732Z,99313.09
2023-03-26T05:09:16.750Z,99308.72
2023-03-26T05:10:05.200Z,99312.78
2023-03-26T05:10:52.084Z,99312.97
2023-03-26T05:11:39.109Z,99312.97
2023-03-26T05:12:26.006Z,99310.22
2023-03-26T05:13:12.885Z,99312.53
2023-03-26T05:13:59.838Z,99317.91
2023-03-26T05:14:46.807Z,99313.91
2023-03-26T05:15:33.725Z,99319.72
2023-03-26T05:16:20.800Z,99326.09
2023-03-26T05:17:11.042Z,99318.75
2023-03-26T05:17:58.456Z,99323.13
2023-03-26T05:18:46.915Z,99317.09
2023-03-26T05:19:33.898Z,99322.81
2023-03-26T05:20:24.196Z,99315.81
2023-03-26T05:21:11.387Z,99307.41
2023-03-26T05:21:58.424Z,99313.44
2023-03-26T05:22:45.365Z,99308.59
2023-03-26T05:23:32.265Z,99316.72
2023-03-26T05:24:20.097Z,99326.28
2023-03-26T05:25:07.810Z,99324.59
2023-03-26T05:25:54.842Z,99322.25
2023-03-26T05:26:41.729Z,99319.78
2023-03-26T05:27:28.598Z,99333.94
2023-03-26T05:28:15.638Z,99334.06
2023-03-26T05:29:03.356Z,99324.06
2023-03-26T05:29:50.533Z,99319.62
2023-03-26T05:30:37.399Z,99323.69
2023-03-26T05:31:25.396Z,99328.19
2023-03-26T05:32:12.873Z,99335.25
2023-03-26T05:32:59.906Z,99329.91
2023-03-26T05:33:47.670Z,99328.81
2023-03-26T05:34:34.656Z,99316.84
2023-03-26T05:35:21.918Z,99325.69
2023-03-26T05:36:13.667Z,99320.47
2023-03-26T05:37:00.853Z,99320.88
2023-03-26T05:37:49.791Z,99333.78
2023-03-26T05:38:37.366Z,99332.69
2023-03-26T05:39:26.588Z,99324.28
2023-03-26T05:40:17.188Z,99327.16
2023-03-26T05:41:04.926Z,99321.81
2023-03-26T05:41:53.202Z,99322.09
2023-03-26T05:42:40.826Z,99317.81
2023-03-26T05:43:28.912Z,99316.63
2023-03-26T05:44:15.867Z,99326.94
2023-03-26T05:45:02.818Z,99330.84
2023-03-26T05:45:49.749Z,99331.28
2023-03-26T05:46:37.091Z,99332.84
2023-03-26T05:47:24.013Z,99326.66
2023-03-26T05:48:11.098Z,99328.41
2023-03-26T05:48:58.049Z,99322.37
2023-03-26T05:49:45.000Z,99328.19
2023-03-26T05:50:31.926Z,99329.31
2023-03-26T05:51:18.899Z,99320.97
2023-03-26T05:52:06.862Z,99326.66
2023-03-26T05:52:53.819Z,99320.25
2023-03-26T05:53:40.834Z,99332.50
2023-03-26T05:54:27.897Z,99325.06
2023-03-26T05:55:14.859Z,99325.16
2023-03-26T05:56:02.274Z,99321.38
2023-03-26T05:56:49.371Z,99325.16
2023-03-26T05:57:36.653Z,99320.63
2023-03-26T05:58:34.133Z,99321.72
2023-03-26T05:59:21.086Z,99323.31
2023-03-26T06:00:12.269Z,99317.28
2023-03-26T06:01:06.048Z,99321.00
2023-03-26T06:01:54.769Z,99315.78
2023-03-26T06:02:44.072Z,99318.22
2023-03-26T06:03:31.873Z,99316.53
2023-03-26T06:04:19.003Z,99312.00
2023-03-26T06:05:06.326Z,99322.94
2023-03-26T06:05:53.227Z,99318.28
2023-03-26T06:06:40.247Z,99321.16
2023-03-26T06:07:27.361Z,99309.00
2023-03-26T06:08:14.361Z,99319.03
2023-03-26T06:09:03.049Z,99318.94
2023-03-26T06:09:49.976Z,99317.56
2023-03-26T06:10:39.796Z,99320.16
2023-03-26T06:11:26.848Z,99320.44
2023-03-26T06:12:14.187Z,99318.13
2023-03-26T06:13:01.153Z,99313.97
2023-03-26T06:13:50.535Z,99306.16
2023-03-26T06:14:37.866Z,99302.88
2023-03-26T06:15:25.123Z,99311.12
2023-03-26T06:16:26.398Z,99311.69
2023-03-26T06:17:14.340Z,99307.44
2023-03-26T06:18:01.575Z,99319.69
2023-03-26T06:18:48.893Z,99313.66
2023-03-26T06:19:43.694Z,99315.34
2023-03-26T06:20:30.689Z,99328.31
2023-03-26T06:21:18.565Z,99326.94
2023-03-26T06:22:05.816Z,99333.97
2023-03-26T06:22:52.681Z,99316.16
2023-03-26T06:23:39.565Z,99324.50
2023-03-26T06:24:26.597Z,99318.03
2023-03-26T06:25:13.496Z,99320.91
2023-03-26T06:26:00.374Z,99314.47
2023-03-26T06:26:47.743Z,99320.16
2023-03-26T06:27:35.640Z,99321.09
2023-03-26T06:28:22.661Z,99321.72
2023-03-26T06:29:09.609Z,99329.53
2023-03-26T06:29:57.729Z,99328.25
2023-03-26T06:30:44.944Z,99318.47
2023-03-26T06:31:31.803Z,99317.88
2023-03-26T06:32:20.617Z,99319.75
2023-03-26T06:33:08.601Z,99327.91
2023-03-26T06:33:55.449Z,99323.28
2023-03-26T06:34:42.678Z,99323.19
2023-03-26T06:35:30.867Z,99321.72
2023-03-26T06:36:17.890Z,99323.03
2023-03-26T06:37:08.568Z,99323.28
2023-03-26T06:38:10.038Z,99321.84
2023-03-26T06:38:57.007Z,99311.62
2023-03-26T06:39:44.319Z,99314.59
2023-03-26T06:40:31.191Z,99314.87
2023-03-26T06:41:18.184Z,99312.88
2023-03-26T06:42:05.266Z,99317.47
2023-03-26T06:43:09.478Z,99324.19
2023-03-26T06:43:57.377Z,99324.91
2023-03-26T06:44:44.249Z,99333.69
2023-03-26T06:45:33.144Z,99329.84
2023-03-26T06:47:07.020Z,99315.84
2023-03-26T06:47:53.831Z,99323.34
2023-03-26T06:48:42.306Z,99317.63
2023-03-26T06:49:29.322Z,99315.66
2023-03-26T06:50:16.457Z,99321.75
2023-03-26T06:51:03.619Z,99327.19
2023-03-26T06:51:55.047Z,99323.37
2023-03-26T06:52:47.641Z,99325.44
2023-03-26T06:53:34.577Z,99315.72
2023-03-26T06:54:21.481Z,99320.34
2023-03-26T06:55:10.579Z,99319.62
2023-03-26T06:55:57.425Z,99321.69
2023-03-26T06:56:45.182Z,99321.81
2023-03-26T06:57:32.252Z,99312.94
2023-03-26T06:58:19.295Z,99316.31
2023-03-26T06:59:06.397Z,99313.31
2023-03-26T06:59:53.214Z,99305.25
2023-03-26T07:00:40.751Z,99321.00
2023-03-26T07:01:27.634Z,99322.09
2023-03-26T07:02:14.517Z,99312.63
2023-03-26T07:03:04.413Z,99325.13
2023-03-26T07:03:51.534Z,99318.72
2023-03-26T07:04:38.809Z,99319.00
2023-03-26T07:05:25.649Z,99316.03
2023-03-26T07:06:12.494Z,99310.13
2023-03-26T07:06:59.531Z,99320.00
2023-03-26T07:07:47.441Z,99326.28
2023-03-26T07:08:34.473Z,99321.78
2023-03-26T07:09:21.778Z,99320.00
2023-03-26T07:10:09.410Z,99316.31
2023-03-26T07:10:57.301Z,99316.56
2023-03-26T07:11:44.488Z,99312.81
2023-03-26T07:12:31.477Z,99310.09
2023-03-26T07:13:18.297Z,99312.22
2023-03-26T07:14:05.373Z,99307.00
2023-03-26T07:14:52.381Z,99316.56
2023-03-26T07:15:39.262Z,99309.50
2023-03-26T07:16:26.222Z,99307.22
2023-03-26T07:17:13.113Z,99301.16
2023-03-26T07:18:00.937Z,99294.91
2023-03-26T07:18:51.645Z,99300.13
2023-03-26T07:19:41.532Z,99300.09
2023-03-26T07:20:28.895Z,99300.87
2023-03-26T07:21:15.962Z,99295.25
2023-03-26T07:22:03.323Z,99296.28
2023-03-26T07:22:50.682Z,99295.44
2023-03-26T07:23:37.858Z,99291.28
2023-03-26T07:24:25.367Z,99286.28
2023-03-26T07:25:14.134Z,99292.50
2023-03-26T07:26:03.133Z,99283.13
2023-03-26T07:27:11.219Z,99288.97
2023-03-26T07:28:20.784Z,99284.59
2023-03-26T07:29:16.286Z,99284.16
2023-03-26T07:30:09.991Z,99285.47
2023-03-26T07:31:05.495Z,99283.22
2023-03-26T07:32:04.283Z,99282.41
2023-03-26T07:32:55.514Z,99283.25
2023-03-26T07:34:04.210Z,99282.84
2023-03-26T07:34:58.633Z,99285.13
2023-03-26T07:35:51.062Z,99279.91
2023-03-26T07:36:58.088Z,99283.47
2023-03-26T07:37:56.329Z,99281.19
2023-03-26T07:39:09.650Z,99286.19
2023-03-26T07:40:03.932Z,99286.78
2023-03-26T07:40:57.709Z,99286.41
2023-03-26T07:42:04.976Z,99286.41
2023-03-26T07:43:06.654Z,99286.41
2023-03-26T07:44:25.559Z,99277.84
2023-03-26T07:45:34.069Z,99279.31
2023-03-26T07:46:27.850Z,99284.72
2023-03-26T07:47:26.372Z,99285.16
2023-03-26T07:48:18.048Z,99285.34
2023-03-26T07:49:05.262Z,99290.13
2023-03-26T07:49:57.887Z,99281.59
2023-03-26T07:50:45.605Z,99277.19
2023-03-26T07:51:33.169Z,99286.81
2023-03-26T07:52:20.296Z,99290.75
2023-03-26T07:53:07.776Z,99276.97
2023-03-26T07:53:55.217Z,99284.22
2023-03-26T07:54:42.327Z,99282.13
2023-03-26T07:55:29.538Z,99281.06
2023-03-26T07:56:19.878Z,99283.97
2023-03-26T07:57:11.255Z,99285.63
2023-03-26T07:58:27.238Z,99276.87
2023-03-26T07:59:23.129Z,99271.69
2023-03-26T08:00:14.407Z,99280.41
2023-03-26T08:01:19.600Z,99279.16
2023-03-26T08:02:16.584Z,99272.41
2023-03-26T08:03:29.441Z,99269.37
2023-03-26T08:04:44.358Z,99271.75
2023-03-26T08:05:34.885Z,99269.28
2023-03-26T08:06:37.541Z,99263.94
2023-03-26T08:07:40.225Z,99261.34
2023-03-26T08:08:34.076Z,99265.59
2023-03-26T08:09:59.328Z,99276.41
2023-03-26T08:11:04.359Z,99262.00
2023-03-26T08:12:12.847Z,99263.44
2023-03-26T08:13:19.525Z,99260.78
2023-03-26T08:14:08.969Z,99256.16
2023-03-26T08:15:01.255Z,99254.69
2023-03-26T08:16:05.729Z,99247.63
2023-03-26T08:17:36.966Z,99252.00
2023-03-26T08:18:38.914Z,99245.00
2023-03-26T08:19:31.914Z,99247.72
2023-03-26T08:20:26.315Z,99254.66
2023-03-26T08:21:25.716Z,99246.66
2023-03-26T08:22:17.394Z,99242.09
2023-03-26T08:23:23.896Z,99241.75
2023-03-26T08:24:25.698Z,99247.37
2023-03-26T08:25:37.372Z,99246.37
2023-03-26T08:27:03.066Z,99248.59
2023-03-26T08:27:59.052Z,99242.81
2023-03-26T08:29:27.697Z,99250.88
2023-03-26T08:30:19.804Z,99249.13
2023-03-26T08:31:10.594Z,99249.06
2023-03-26T08:31:57.788Z,99243.03
2023-03-26T08:32:59.597Z,99242.31
2023-03-26T08:33:46.597Z,99244.41
2023-03-26T08:34:33.456Z,99241.41
2023-03-26T08:35:20.398Z,99250.09
2023-03-26T08:36:09.460Z,99244.22
2023-03-26T08:36:56.334Z,99253.06
2023-03-26T08:37:45.448Z,99246.37
2023-03-26T08:38:32.508Z,99247.53
2023-03-26T08:39:22.463Z,99241.94
2023-03-26T08:40:09.886Z,99242.97
2023-03-26T08:41:12.037Z,99235.78
2023-03-26T08:42:17.377Z,99244.06
2023-03-26T08:43:17.736Z,99242.00
2023-03-26T08:44:22.643Z,99243.78
2023-03-26T08:45:51.569Z,99239.03
2023-03-26T08:47:10.474Z,99246.75
2023-03-26T08:48:03.996Z,99237.16
2023-03-26T08:49:25.910Z,99245.97
2023-03-26T08:50:21.479Z,99238.06
2023-03-26T08:51:23.195Z,99237.53
2023-03-26T08:52:25.764Z,99236.25
2023-03-26T08:53:50.050Z,99236.59
2023-03-26T08:54:48.966Z,99224.25
2023-03-26T08:55:44.265Z,99232.66
2023-03-26T08:56:59.447Z,99229.88
2023-03-26T08:58:09.197Z,99229.72
2023-03-26T08:59:43.603Z,99235.50
2023-03-26T09:00:52.347Z,99227.19
2023-03-26T09:01:54.012Z,99225.06
2023-03-26T09:03:01.755Z,99219.50
2023-03-26T09:03:48.637Z,99221.03
2023-03-26T09:05:05.965Z,99216.75
2023-03-26T09:06:24.826Z,99219.03
2023-03-26T09:07:48.274Z,99227.31
2023-03-26T09:09:08.895Z,99229.91
2023-03-26T09:10:09.617Z,99224.91
2023-03-26T09:11:17.395Z,99223.28
2023-03-26T09:12:35.477Z,99219.47
2023-03-26T09:13:41.061Z,99220.12
2023-03-26T09:15:06.586Z,99224.59
2023-03-26T09:16:06.624Z,99224.25
2023-03-26T09:17:22.643Z,99220.94
2023-03-26T09:18:21.371Z,99226.50
2023-03-26T09:19:23.467Z,99214.91
2023-03-26T09:20:27.080Z,99213.19
2023-03-26T09:21:47.822Z,99218.13
2023-03-26T09:22:41.107Z,99216.63
2023-03-26T09:23:52.863Z,99217.38
2023-03-26T09:25:16.976Z,99216.37
2023-03-26T09:26:19.165Z,99208.00
2023-03-26T09:27:09.464Z,99206.34
2023-03-26T09:28:02.509Z,99199.41
2023-03-26T09:29:22.308Z,99198.47
2023-03-26T09:30:31.849Z,99191.22
2023-03-26T09:32:06.208Z,99188.62
2023-03-26T09:33:17.158Z,99186.84
2023-03-26T09:34:15.720Z,99192.53
2023-03-26T09:35:14.747Z,99191.09
2023-03-26T09:36:34.545Z,99190.84
2023-03-26T09:37:56.257Z,99194.53
2023-03-26T09:38:52.971Z,99202.38
2023-03-26T09:39:53.869Z,99188.72
2023-03-26T09:41:06.739Z,99188.28
2023-03-26T09:42:05.809Z,99187.78
2023-03-26T09:42:55.620Z,99174.88
2023-03-26T09:44:12.937Z,99184.59
2023-03-26T09:45:22.887Z,99175.47
2023-03-26T09:46:41.459Z,99170.63
2023-03-26T09:47:45.976Z,99164.81
2023-03-26T09:48:33.233Z,99168.03
2023-03-26T09:49:49.968Z,99162.09
2023-03-26T09:50:59.964Z,99156.78
2023-03-26T09:52:01.212Z,99151.78
2023-03-26T09:52:50.741Z,99150.69
2023-03-26T09:53:56.367Z,99143.62
2023-03-26T09:55:28.626Z,99146.47
2023-03-26T09:56:32.401Z,99140.84
2023-03-26T09:57:40.924Z,99139.72
2023-03-26T09:58:46.309Z,99137.47
2023-03-26T10:00:03.368Z,99135.44
2023-03-26T10:01:01.291Z,99131.91
2023-03-26T10:02:08.766Z,99141.38
2023-03-26T10:03:07.850Z,99139.97
2023-03-26T10:04:33.593Z,99127.53
2023-03-26T10:05:30.540Z,99131.09
2023-03-26T10:06:36.935Z,99133.19
2023-03-26T10:07:53.961Z,99128.28
2023-03-26T10:09:22.219Z,99130.50
2023-03-26T10:10:18.660Z,99126.06
2023-03-26T10:11:16.580Z,99116.94
2023-03-26T10:12:15.188Z,99116.81
2023-03-26T10:13:14.782Z,99113.78
2023-03-26T10:14:21.080Z,99113.72
2023-03-26T10:15:32.159Z,99111.47
2023-03-26T10:16:25.147Z,99110.47
2023-03-26T10:17:39.966Z,99105.34